Latest Coastal Weather Observations for Groote Eylandt Airport

IDD60701

Issued at 1:32 am CST Saturday 25 March 2017 (issued every 10 minutes, with the page automatically refreshed every 10 minutes)

About coastal observations | Map of coastal stations | Coastal observations for NT | Marine services | Other Formats
Station Details ID: 014518 Name: GROOTE EYLANDT AIRPORT Lat: -13.97 Lon: 136.46 Height: 13.7 m
Data from the previous 72 hours. | See also: Recent months at Groote Eylandt Airport
Date/Time
CST
Temp
°C
Wind Pressure Rain since
9am
mm
Weather Cloud Vis
km
Sea
Height
m
Swell
Dir  Spd
kts
Gust
kts
hPa Trend Height
m
Period
s
Dir
25/01:30am 27.3 CALM 0 0 1007.9 - 0.0 - - 10 - - - -
25/01:00am 27.9 CALM 0 0 1008.0 - 0.0 - - 10 - - - -
25/12:30am 28.3 N 4 4 1007.9 - 0.0 - - 10 - - - -
25/12:00am 28.3 CALM 0 0 1008.3 - 0.0 - Mostly cloudy 10 - - - -
 
Date/Time
CST
Temp
°C
Wind Pressure Rain since
9am
mm
Weather Cloud Vis
km
Sea
Height
m
Swell
Dir  Spd
kts
Gust
kts
hPa Trend Height
m
Period
s
Dir
24/11:30pm 28.5 N 3 5 1008.7 - 0.0 - - 10 - - - -
24/11:00pm 28.4 E 4 5 1008.8 - 0.0 - - 10 - - - -
24/10:30pm 28.5 E 6 7 1008.6 - 0.0 - - 10 - - - -
24/10:00pm 28.7 E 3 5 1008.1 - 0.0 - - 10 - - - -
24/09:30pm 29.0 E 4 6 1008.0 - 0.0 - - 10 - - - -
24/09:00pm 29.3 ESE 6 8 1007.4 - 0.0 - Cloudy 10 - - - -
24/08:30pm 29.3 E 6 8 1007.1 - 0.0 - - 10 - - - -
24/08:00pm 29.2 E 4 6 1007.2 - 0.0 - - 10 - - - -
24/07:30pm 29.3 SE 4 5 1007.0 - 0.0 - - 10 - - - -
24/07:00pm 29.5 SW 3 4 1006.9 - 0.0 - - 10 - - - -
24/06:30pm 30.4 WSW 3 3 1006.7 - 0.0 - - 10 - - - -
24/06:00pm 31.7 WSW 3 4 1006.2 - 0.0 - Mostly clear 10 - - - -
24/05:30pm 33.0 W 3 6 1006.0 - 0.0 - - 10 - - - -
24/05:00pm 32.7 W 4 7 1005.8 - 0.0 - - 10 - - - -
24/04:30pm 33.1 WNW 6 8 1005.8 - 0.0 - - 10 - - - -
24/04:00pm 33.2 NW 7 9 1005.8 - 0.0 - - 10 - - - -
24/03:30pm 33.3 NW 10 13 1006.0 - 0.0 - Partly cloudy 10 - - - -
24/03:00pm 33.1 NW 9 13 1006.1 - 0.0 - Mostly clear 10 - - - -
24/02:30pm 32.1 NW 9 11 1006.5 - 0.0 - - 10 - - - -
24/02:00pm 32.5 N 5 11 1007.0 - 0.0 - Partly cloudy 10 - - - -
24/01:30pm 31.8 NW 8 11 1007.2 - 0.0 - - 10 - - - -
24/01:00pm 31.9 N 6 9 1007.7 - 0.0 - Partly cloudy 10 - - - -
24/12:30pm 32.0 N 7 10 1008.1 - 0.0 - - 10 - - - -
24/12:00pm 31.0 N 8 11 1008.6 - 0.0 - Cloudy 10 - - - -
24/11:30am 31.0 NNW 7 11 1008.8 - 0.0 - - 10 - - - -
24/11:00am 30.9 NNW 8 10 1009.2 - 0.0 - Partly cloudy 10 - - - -
24/10:30am 30.7 NW 7 11 1009.6 - 0.0 - Partly cloudy 10 - - - -
24/10:00am 30.8 NW 9 11 1009.4 - 0.0 - Partly cloudy 10 - - - -
24/09:30am 31.1 NW 6 10 1009.4 - 0.0 - Partly cloudy 10 - - - -
24/09:00am 30.2 NW 9 11 1009.3 - 0.0 - Cloudy 10 - - - -
24/08:30am 29.7 WNW 7 10 1009.0 - 0.0 - - 10 - - - -
24/08:00am 27.5 WSW 3 4 1008.6 - 0.0 - Partly cloudy 10 - - - -
24/07:30am 26.4 CALM 0 2 1009.0 - 0.0 - - 10 - - - -
24/07:00am 26.0 ENE 3 4 1008.8 - 0.0 - - 10 - - - -
24/06:30am 26.0 CALM 0 0 1008.3 - 0.0 - - 10 - - - -
24/06:00am 26.2 CALM 0 0 1008.5 - 0.0 - Cloudy 10 - - - -
24/05:30am 26.3 CALM 0 0 1008.2 - 0.0 - Partly cloudy 10 - - - -
24/05:00am 26.5 ENE 3 4 1007.9 - 0.0 - Partly cloudy 10 - - - -
24/04:30am 26.4 E 3 4 1007.7 - 0.0 - - 10 - - - -
24/04:00am 26.4 ESE 1 4 1007.6 - 0.0 - - 10 - - - -
24/03:30am 26.6 CALM 0 2 1007.7 - 0.0 - Partly cloudy 10 - - - -
24/03:00am 26.7 ESE 1 3 1007.9 - 0.0 - Cloudy 10 - - - -
24/02:30am 26.6 ESE 3 5 1008.3 - 0.0 - - 10 - - - -
24/02:00am 26.7 ESE 3 3 1008.8 - 0.0 - - 10 - - - -
24/01:30am 27.2 CALM 0 0 1009.1 - 0.0 - Partly cloudy 10 - - - -
24/01:00am 26.8 CALM 0 0 1009.1 - 0.0 - - 10 - - - -
24/12:30am 26.6 SE 3 5 1009.2 - 0.0 - - 10 - - - -
24/12:00am 27.2 CALM 0 3 1009.3 - 0.0 Rain Cloudy 10 - - - -
 
Date/Time
CST
Temp
°C
Wind Pressure Rain since
9am
mm
Weather Cloud Vis
km
Sea
Height
m
Swell
Dir  Spd
kts
Gust
kts
hPa Trend Height
m
Period
s
Dir
23/11:30pm 26.9 ESE 4 5 1009.7 - 0.0 - - 10 - - - -
23/11:00pm 27.0 CALM 0 0 1009.8 - 0.0 - - 10 - - - -
23/10:30pm 27.3 CALM 0 0 1009.7 - 0.0 - - 10 - - - -
23/10:00pm 27.5 E 4 5 1009.7 - 0.0 - - 10 - - - -
23/09:30pm 27.5 CALM 0 0 1009.6 - 0.0 - - 10 - - - -
23/09:00pm 27.6 ESE 2 4 1009.4 - 0.0 - Cloudy 10 - - - -
23/08:30pm 27.6 E 3 4 1008.6 - 0.0 - - 10 - - - -
23/08:00pm 28.4 ENE 2 4 1008.4 - 0.0 - - 10 - - - -
23/07:30pm 28.4 CALM 0 3 1007.9 - 0.0 - - 10 - - - -
23/07:00pm 29.1 ESE 4 4 1007.6 - 0.0 - - 10 - - - -
23/06:30pm 30.3 ESE 4 5 1007.5 - 0.0 - - 10 - - - -
23/06:00pm 31.5 E 5 7 1007.4 - 0.0 - - 10 - - - -
23/05:30pm 32.0 ESE 4 6 1007.2 - 0.0 - - 10 - - - -
23/05:00pm 31.5 SE 5 6 1006.7 - 0.0 - - 10 - - - -
23/04:30pm 30.8 SE 4 6 1006.7 - 0.0 - - 10 - - - -
23/04:00pm 30.1 ESE 5 7 1006.7 - 0.0 - - 10 - - - -
23/03:30pm 31.1 S 4 6 1006.6 - 0.0 - Partly cloudy 10 - - - -
23/03:00pm 33.1 S 4 7 1007.4 - 0.0 - - 10 - - - -
23/02:30pm 33.6 NW 9 13 1007.6 - 0.0 - - 10 - - - -
23/02:00pm 33.3 NNW 9 14 1007.9 - 0.0 - - 10 - - - -
23/01:30pm 33.0 NNW 10 14 1008.2 - 0.0 - - 10 - - - -
23/01:00pm 32.4 NW 10 14 1008.6 - 0.0 - Partly cloudy 10 - - - -
23/12:30pm 32.6 NW 10 16 1009.0 - 0.0 - - 10 - - - -
23/12:00pm 31.8 WNW 8 12 1009.4 - 0.0 - Mostly clear 10 - - - -
23/11:30am 32.1 NNW 8 11 1009.8 - 0.0 - Partly cloudy 10 - - - -
23/11:00am 31.0 NW 7 10 1009.9 - 0.0 - Partly cloudy 10 - - - -
23/10:30am 31.6 NNW 6 9 1010.1 - 0.0 - Partly cloudy 10 - - - -
23/10:00am 30.8 NNW 8 12 1010.3 - 0.0 - Partly cloudy 10 - - - -
23/09:30am 31.0 N 7 10 1010.3 - 0.0 - Partly cloudy 10 - - - -
23/09:00am 29.6 N 5 8 1010.1 - 0.0 - Mostly clear 10 - - - -
23/08:30am 28.8 NNW 8 10 1009.8 - 0.0 - Partly cloudy 10 - - - -
23/08:00am 29.0 N 5 8 1009.6 - 0.0 - - 10 - - - -
23/07:30am 27.7 E 2 4 1009.5 - 0.0 - - 10 - - - -
23/07:00am 26.0 E 3 4 1009.3 - 0.0 - - 10 - - - -
23/06:30am 25.6 E 3 5 1009.0 - 0.0 - - 10 - - - -
23/06:00am 25.8 E 5 5 1008.4 - 0.0 - Cloudy 10 - - - -
23/05:30am 25.8 E 3 4 1007.9 - 0.0 - - 10 - - - -
23/05:00am 25.9 ENE 2 3 1007.9 - 0.0 - - 10 - - - -
23/04:30am 25.8 CALM 0 2 1007.8 - 0.0 - - 10 - - - -
23/04:00am 25.9 E 2 4 1007.6 - 0.0 - - 10 - - - -
23/03:30am 25.8 CALM 0 0 1007.7 - 0.0 - - 10 - - - -
23/03:00am 25.7 CALM 0 2 1007.9 - 0.0 - Cloudy 10 - - - -
23/02:30am 25.7 CALM 0 0 1008.1 - 0.0 - - 10 - - - -
23/02:00am 25.7 E 2 5 1008.4 - 0.0 - - 10 - - - -
23/01:30am 25.7 E 5 5 1008.5 - 0.0 - - 10 - - - -
23/01:00am 25.9 CALM 0 0 1008.8 - 0.0 - - 10 - - - -
23/12:30am 25.7 CALM 0 0 1009.2 - 0.0 - - 10 - - - -
23/12:00am 25.8 CALM 0 0 1009.4 - 0.0 - Cloudy 10 - - - -
 
Date/Time
CST
Temp
°C
Wind Pressure Rain since
9am
mm
Weather Cloud Vis
km
Sea
Height
m
Swell
Dir  Spd
kts
Gust
kts
hPa Trend Height
m
Period
s
Dir
22/11:30pm 25.8 E 5 5 1009.7 - 0.0 - - 10 - - - -
22/11:00pm 25.8 ESE 3 5 1010.0 - 0.0 - - 10 - - - -
22/10:30pm 25.9 ENE 1 3 1010.1 - 0.0 - - 10 - - - -
22/10:00pm 26.2 CALM 0 0 1010.2 - 0.0 - - 10 - - - -
22/09:30pm 26.7 CALM 0 3 1010.0 - 0.0 - - 10 - - - -
22/09:00pm 26.8 NE 3 3 1009.5 - 0.0 - Partly cloudy 10 - - - -
22/08:30pm 26.6 SE 4 6 1008.8 - 0.0 - - 10 - - - -
22/08:00pm 26.6 E 2 4 1008.6 - 0.0 - - 10 - - - -
22/07:30pm 27.2 CALM 0 0 1008.6 - 0.0 - - 10 - - - -
22/07:00pm 27.5 CALM 0 0 1008.2 - 0.0 - - 10 - - - -
22/06:30pm 28.7 NE 3 4 1007.5 - 0.0 - - 10 - - - -
22/06:00pm 29.3 NE 4 5 1007.5 - 0.0 - - 10 - - - -
22/05:30pm 29.9 NE 3 4 1007.2 - 0.0 - - 10 - - - -
22/05:00pm 30.2 CALM 0 3 1007.2 - 0.0 - - 10 - - - -
22/04:30pm 29.1 E 2 4 1006.9 - 0.0 - - 10 - - - -
22/04:00pm 27.5 ESE 4 5 1006.8 - 0.0 - - 10 - - - -
22/03:30pm 26.8 SE 4 6 1007.1 - 0.0 - Partly cloudy 10 - - - -
22/03:00pm 26.5 SSE 4 7 1007.4 - 0.0 - - 10 - - - -
22/02:30pm 27.9 SSE 9 17 1008.2 - 0.0 - Partly cloudy 10 - - - -
22/02:00pm 30.7 NW 8 10 1007.8 - 0.0 - - 10 - - - -
22/01:30pm 31.3 NNW 11 13 1007.9 - 0.0 - Partly cloudy 10 - - - -
22/01:00pm 32.0 NW 11 15 1008.3 - 0.0 - Partly cloudy 10 - - - -
22/12:30pm 31.3 NW 7 11 1008.8 - 0.0 - Partly cloudy 10 - - - -
22/12:00pm 30.9 NW 7 14 1009.3 - 0.0 - Mostly cloudy 10 - - - -
22/11:30am 31.2 NW 6 8 1009.7 - 0.0 - Partly cloudy 10 - - - -
22/11:00am 30.4 NW 5 7 1010.0 - 0.0 - Partly cloudy 10 - - - -
22/10:30am 30.2 NW 4 7 1010.2 - 0.0 - Partly cloudy 10 - - - -
22/10:00am 30.0 WNW 6 8 1010.6 - 0.0 - Partly cloudy 10 - - - -
22/09:30am 29.3 WNW 5 9 1010.7 - 0.0 - Partly cloudy 10 - - - -
22/09:00am 29.2 WSW 3 6 1010.5 - 6.8 Rain Cloudy 10 - - - -
22/08:30am 29.3 CALM 0 0 1010.3 - 6.8 - Partly cloudy 10 - - - -
22/08:00am 28.1 CALM 0 0 1009.8 - 6.8 - Partly cloudy 10 - - - -
22/07:30am 26.0 CALM 0 0 1009.6 - 6.8 - Partly cloudy 10 - - - -
22/07:00am 25.6 CALM 0 0 1009.3 - 6.8 - - 10 - - - -
22/06:30am 25.4 CALM 0 0 1009.1 - 6.8 - - 10 - - - -
22/06:00am 25.4 CALM 0 0 1008.8 - 6.8 - Cloudy 10 - - - -
22/05:30am 25.5 CALM 0 0 1008.3 - 6.8 - - 10 - - - -
22/05:00am 25.6 CALM 0 0 1007.9 - 6.8 - - 10 - - - -
22/04:30am 25.5 CALM 0 0 1007.8 - 6.8 - - 10 - - - -
22/04:00am 25.6 CALM 0 0 1007.8 - 6.8 - - 10 - - - -
22/03:30am 25.6 CALM 0 0 1008.1 - 6.8 - - 10 - - - -
22/03:00am 25.6 CALM 0 0 1008.1 - 6.8 - Cloudy 10 - - - -
22/02:30am 25.6 CALM 0 0 1008.2 - 6.8 - - 10 - - - -
22/02:00am 25.8 CALM 0 0 1008.4 - 6.8 - - 10 - - - -

Other Formats:

Comma delimited format used in spreadsheet applications
http://www.bom.gov.au/fwo/IDD60701/IDD60701.94153.axf

JavaScript Object Notation format (JSON) in row-major order
http://www.bom.gov.au/fwo/IDD60701/IDD60701.94153.json